createdAt,value
2019-06-20T00:00:02.708Z,6.97
2019-06-20T00:02:31.122Z,6.25
2019-06-20T00:05:01.187Z,9.90
2019-06-20T00:07:29.607Z,6.33
2019-06-20T00:09:57.992Z,5.58
2019-06-20T00:12:26.443Z,9.25
2019-06-20T00:14:54.851Z,9.65
2019-06-20T00:17:23.273Z,13.50
2019-06-20T00:19:51.674Z,6.08
2019-06-20T00:22:20.089Z,7.50
2019-06-20T00:24:49.995Z,9.70
2019-06-20T00:27:18.387Z,8.80
2019-06-20T00:29:49.805Z,10.68
2019-06-20T00:32:18.311Z,6.90
2019-06-20T00:34:46.720Z,7.97
2019-06-20T00:37:16.632Z,5.85
2019-06-20T00:39:45.035Z,5.40
2019-06-20T00:42:13.436Z,4.80
2019-06-20T00:44:41.865Z,6.78
2019-06-20T00:47:28.006Z,6.67
2019-06-20T00:50:13.903Z,8.30
2019-06-20T00:53:00.013Z,6.73
2019-06-20T00:55:46.603Z,10.43
2019-06-20T00:58:32.494Z,7.83
2019-06-20T01:01:20.100Z,6.95
2019-06-20T01:04:07.741Z,10.87
2019-06-20T01:09:39.003Z,5.65
2019-06-20T01:12:25.230Z,11.12
2019-06-20T01:15:11.718Z,11.83
2019-06-20T01:17:59.576Z,9.55
2019-06-20T01:20:47.544Z,6.90
2019-06-20T01:23:33.527Z,6.60
2019-06-20T01:26:19.682Z,5.55
2019-06-20T01:29:06.081Z,5.75
2019-06-20T01:31:53.799Z,11.97
2019-06-20T01:34:39.992Z,8.28
2019-06-20T01:37:26.557Z,10.18
2019-06-20T01:40:12.680Z,7.40
2019-06-20T01:42:58.897Z,7.45
2019-06-20T01:45:45.266Z,9.57
2019-06-20T01:48:31.155Z,7.80
2019-06-20T01:50:59.652Z,8.10
2019-06-20T01:53:29.584Z,7.45
2019-06-20T01:55:59.512Z,7.78
2019-06-20T01:58:28.182Z,10.93
2019-06-20T02:00:56.655Z,10.25
2019-06-20T02:03:25.282Z,11.68
2019-06-20T02:05:53.683Z,10.35
2019-06-20T02:08:23.604Z,8.15
2019-06-20T02:10:52.197Z,13.48
2019-06-20T02:13:21.392Z,13.22
2019-06-20T02:15:49.825Z,9.70
2019-06-20T02:18:18.226Z,11.30
2019-06-20T02:20:52.463Z,7.85
2019-06-20T02:23:22.008Z,8.98
2019-06-20T02:25:50.597Z,7.77
2019-06-20T02:28:19.098Z,9.87
2019-06-20T02:30:47.716Z,11.17
2019-06-20T02:33:16.183Z,4.20
2019-06-20T02:35:44.657Z,8.17
2019-06-20T02:38:13.079Z,14.87
2019-06-20T02:40:41.619Z,10.37
2019-06-20T02:43:10.116Z,13.05
2019-06-20T02:45:38.509Z,7.67
2019-06-20T02:48:07.196Z,7.97
2019-06-20T02:50:35.680Z,8.60
2019-06-20T02:53:04.973Z,12.07
2019-06-20T02:55:33.645Z,12.63
2019-06-20T02:58:02.135Z,8.75
2019-06-20T03:00:33.646Z,9.53
2019-06-20T03:03:02.175Z,10.18
2019-06-20T03:05:30.593Z,12.80
2019-06-20T03:07:59.083Z,11.57
2019-06-20T03:10:27.456Z,14.33
2019-06-20T03:12:55.889Z,13.70
2019-06-20T03:15:24.290Z,12.63
2019-06-20T03:17:54.195Z,14.70
2019-06-20T03:20:22.608Z,24.00
2019-06-20T03:22:51.105Z,15.83
2019-06-20T03:25:21.770Z,19.65
2019-06-20T03:27:50.257Z,15.93
2019-06-20T03:30:18.772Z,14.10
2019-06-20T03:32:47.169Z,11.48
2019-06-20T03:35:17.101Z,10.63
2019-06-20T03:37:45.603Z,9.50
2019-06-20T03:40:14.095Z,10.78
2019-06-20T03:42:42.514Z,10.60
2019-06-20T03:45:10.937Z,13.30
2019-06-20T03:47:39.366Z,15.17
2019-06-20T03:50:09.478Z,15.20
2019-06-20T03:52:39.411Z,14.80
2019-06-20T03:55:09.605Z,19.17
2019-06-20T03:57:38.012Z,12.50
2019-06-20T04:00:12.249Z,15.15
2019-06-20T04:02:40.653Z,15.75
2019-06-20T04:05:09.216Z,11.24
2019-06-20T04:07:37.602Z,13.68
2019-06-20T04:10:06.818Z,14.07
2019-06-20T04:12:35.203Z,15.28
2019-06-20T04:15:18.486Z,12.63
2019-06-20T04:17:37.371Z,9.35
2019-06-20T04:20:06.875Z,19.77
2019-06-20T04:22:35.255Z,14.17
2019-06-20T04:25:05.038Z,10.72
2019-06-20T04:27:33.453Z,11.12
2019-06-20T04:30:01.871Z,12.35
2019-06-20T04:32:31.880Z,8.85
2019-06-20T04:35:00.278Z,12.83
2019-06-20T04:37:28.947Z,6.10
2019-06-20T04:39:57.340Z,5.87
2019-06-20T04:42:27.277Z,7.92
2019-06-20T04:44:57.319Z,6.62
2019-06-20T04:47:25.752Z,7.20
2019-06-20T04:49:54.157Z,6.65
2019-06-20T04:52:24.085Z,3.77
2019-06-20T04:54:52.522Z,8.18
2019-06-20T04:57:22.429Z,8.20
2019-06-20T04:59:52.456Z,5.70
2019-06-20T05:02:22.589Z,5.62
2019-06-20T05:04:50.987Z,7.33
2019-06-20T05:07:20.394Z,6.03
2019-06-20T05:09:48.805Z,6.67
2019-06-20T05:12:18.737Z,9.28
2019-06-20T05:14:47.235Z,9.03
2019-06-20T05:17:15.970Z,4.97
2019-06-20T05:19:44.392Z,10.20
2019-06-20T05:22:15.741Z,9.50
2019-06-20T05:24:44.149Z,5.58
2019-06-20T05:27:12.535Z,8.78
2019-06-20T05:29:42.476Z,9.45
2019-06-20T05:32:12.372Z,5.40
2019-06-20T05:34:40.897Z,9.53
2019-06-20T05:37:09.332Z,6.37
2019-06-20T05:39:38.302Z,5.22
2019-06-20T05:42:08.238Z,6.42
2019-06-20T05:44:38.162Z,5.20
2019-06-20T05:47:12.454Z,13.30
2019-06-20T05:49:38.189Z,4.22
2019-06-20T05:52:06.617Z,9.28
2019-06-20T05:54:34.989Z,8.00
2019-06-20T05:57:04.749Z,6.37
2019-06-20T05:59:33.544Z,8.15
2019-06-20T06:02:02.922Z,5.17
2019-06-20T06:04:32.858Z,7.33
2019-06-20T06:07:01.267Z,5.20
2019-06-20T06:09:29.685Z,8.85
2019-06-20T06:11:58.086Z,7.85
2019-06-20T06:14:26.511Z,4.47
2019-06-20T06:16:54.915Z,8.60
2019-06-20T06:19:23.334Z,3.60
2019-06-20T06:21:51.724Z,9.68
2019-06-20T06:24:20.150Z,3.37
2019-06-20T06:26:48.528Z,5.92
2019-06-20T06:29:17.029Z,6.22
2019-06-20T06:31:46.157Z,4.58
2019-06-20T06:34:14.558Z,7.45
2019-06-20T06:36:42.951Z,9.78
2019-06-20T06:39:11.408Z,5.60
2019-06-20T06:41:39.817Z,5.05
2019-06-20T06:44:08.540Z,5.50
2019-06-20T06:46:45.062Z,6.92
2019-06-20T06:49:07.288Z,4.50
2019-06-20T06:51:38.283Z,4.75
2019-06-20T06:54:07.126Z,4.40
2019-06-20T06:56:37.041Z,5.95
2019-06-20T06:59:05.522Z,2.77
2019-06-20T07:01:33.908Z,5.42
2019-06-20T07:04:03.812Z,5.72
2019-06-20T07:06:32.219Z,3.67
2019-06-20T07:09:00.757Z,3.12
2019-06-20T07:11:30.710Z,3.17
2019-06-20T07:13:59.280Z,3.70
2019-06-20T07:16:27.719Z,6.80
2019-06-20T07:18:56.254Z,9.70
2019-06-20T07:21:26.245Z,2.52
2019-06-20T07:23:54.629Z,9.60
2019-06-20T07:26:23.094Z,4.65
2019-06-20T07:28:53.019Z,4.40
2019-06-20T07:31:21.421Z,4.40
2019-06-20T07:33:49.813Z,1.82
2019-06-20T07:36:18.222Z,2.98
2019-06-20T07:38:46.664Z,3.42
2019-06-20T07:41:15.077Z,4.03
2019-06-20T07:43:43.491Z,7.67
2019-06-20T07:46:11.906Z,2.62
2019-06-20T07:48:40.363Z,3.00
2019-06-20T07:51:08.801Z,10.40
2019-06-20T07:53:37.226Z,4.20
2019-06-20T07:56:08.601Z,4.67
2019-06-20T07:58:35.756Z,4.70
2019-06-20T08:01:04.450Z,3.20
2019-06-20T08:03:32.943Z,2.85
2019-06-20T08:06:01.469Z,2.27
2019-06-20T08:08:29.842Z,3.42
2019-06-20T08:10:58.232Z,2.67
2019-06-20T08:13:26.642Z,2.85
2019-06-20T08:15:55.031Z,3.00
2019-06-20T08:18:24.963Z,7.85
2019-06-20T08:20:53.361Z,4.35
2019-06-20T08:23:21.801Z,3.25
2019-06-20T08:25:50.289Z,4.10
2019-06-20T08:28:18.726Z,3.77
2019-06-20T08:30:47.138Z,2.33
2019-06-20T08:33:15.646Z,2.87
2019-06-20T08:35:44.243Z,4.03
2019-06-20T08:38:12.634Z,5.37
2019-06-20T08:40:41.042Z,2.12
2019-06-20T08:43:09.899Z,2.45
2019-06-20T08:45:40.294Z,2.33
2019-06-20T08:48:08.748Z,3.62
2019-06-20T08:50:37.324Z,2.52
2019-06-20T08:53:07.426Z,4.17
2019-06-20T08:55:36.851Z,4.60
2019-06-20T08:58:05.860Z,2.80
2019-06-20T09:00:36.546Z,2.33
2019-06-20T09:03:06.715Z,2.42
2019-06-20T09:05:35.235Z,1.37
2019-06-20T09:08:06.965Z,6.52
2019-06-20T09:10:39.827Z,5.55
2019-06-20T09:13:09.371Z,2.62
2019-06-20T09:15:37.790Z,4.00
2019-06-20T09:18:08.520Z,3.65
2019-06-20T09:20:37.171Z,1.37
2019-06-20T09:23:07.261Z,3.80
2019-06-20T09:25:35.984Z,2.35
2019-06-20T09:28:04.797Z,1.50
2019-06-20T09:30:34.147Z,6.77
2019-06-20T09:33:02.623Z,3.65
2019-06-20T09:35:31.088Z,2.30
2019-06-20T09:37:59.481Z,4.15
2019-06-20T09:40:28.028Z,4.90
2019-06-20T09:42:58.777Z,8.40
2019-06-20T09:45:28.900Z,4.00
2019-06-20T09:47:58.261Z,4.13
2019-06-20T09:50:26.944Z,4.15
2019-06-20T09:52:56.615Z,2.00
2019-06-20T09:55:25.652Z,1.70
2019-06-20T09:57:54.082Z,2.25
2019-06-20T10:00:25.742Z,8.10
2019-06-20T10:02:57.595Z,7.45
2019-06-20T10:05:25.932Z,8.70
2019-06-20T10:07:56.703Z,4.50
2019-06-20T10:10:28.354Z,3.77
2019-06-20T10:12:57.207Z,3.92
2019-06-20T10:15:28.405Z,5.90
2019-06-20T10:17:56.997Z,2.72
2019-06-20T10:20:26.157Z,2.95
2019-06-20T10:22:54.611Z,6.40
2019-06-20T10:25:23.759Z,3.80
2019-06-20T10:27:53.717Z,12.20
2019-06-20T10:30:24.712Z,17.95
2019-06-20T10:32:53.331Z,4.37
2019-06-20T10:35:21.957Z,3.00
2019-06-20T10:37:50.501Z,1.87
2019-06-20T10:40:20.550Z,2.75
2019-06-20T10:42:50.196Z,1.82
2019-06-20T10:45:21.034Z,5.42
2019-06-20T10:47:50.918Z,2.67
2019-06-20T10:50:20.704Z,5.65
2019-06-20T10:52:51.881Z,6.00
2019-06-20T10:55:20.960Z,5.03
2019-06-20T10:57:50.033Z,5.20
2019-06-20T11:00:30.141Z,3.90
2019-06-20T11:02:51.208Z,9.18
2019-06-20T11:05:21.100Z,27.75
2019-06-20T11:07:50.181Z,8.15
2019-06-20T11:10:20.528Z,15.10
2019-06-20T11:12:54.924Z,17.73
2019-06-20T11:15:20.396Z,20.32
2019-06-20T11:17:48.803Z,15.28
2019-06-20T11:20:18.898Z,16.83
2019-06-20T11:22:47.842Z,6.13
2019-06-20T11:25:19.250Z,3.80
2019-06-20T11:27:47.542Z,4.00
2019-06-20T11:30:24.914Z,4.30
2019-06-20T11:32:53.321Z,3.83
2019-06-20T11:35:21.790Z,3.02
2019-06-20T11:37:50.233Z,6.37
2019-06-20T11:40:19.156Z,3.27
2019-06-20T11:42:47.593Z,2.85
2019-06-20T11:45:16.815Z,2.15
2019-06-20T11:47:45.253Z,3.15
2019-06-20T11:50:18.178Z,4.33
2019-06-20T11:52:46.594Z,3.35
2019-06-20T11:55:16.926Z,4.85
2019-06-20T11:57:46.874Z,3.13
2019-06-20T12:00:16.311Z,4.15
2019-06-20T12:02:46.196Z,3.52
2019-06-20T12:05:15.468Z,2.12
2019-06-20T12:07:45.749Z,3.92
2019-06-20T12:10:16.503Z,10.75
2019-06-20T12:12:45.019Z,3.67
2019-06-20T12:15:16.689Z,5.90
2019-06-20T12:17:46.971Z,4.65
2019-06-20T12:20:15.950Z,2.72
2019-06-20T12:22:45.049Z,2.07
2019-06-20T12:25:16.461Z,2.17
2019-06-20T12:27:45.519Z,6.50
2019-06-20T12:30:15.967Z,3.67
2019-06-20T12:32:44.752Z,2.12
2019-06-20T12:35:14.325Z,2.83
2019-06-20T12:37:47.863Z,4.87
2019-06-20T12:40:17.381Z,3.87
2019-06-20T12:42:46.773Z,2.25
2019-06-20T12:45:18.762Z,3.80
2019-06-20T12:47:50.169Z,6.87
2019-06-20T12:50:19.147Z,2.87
2019-06-20T12:52:48.219Z,5.00
2019-06-20T12:55:19.696Z,3.15
2019-06-20T12:57:48.747Z,2.15
2019-06-20T13:00:17.527Z,2.25
2019-06-20T13:02:47.338Z,3.08
2019-06-20T13:05:18.077Z,1.90
2019-06-20T13:07:48.135Z,2.35
2019-06-20T13:10:16.995Z,3.55
2019-06-20T13:12:46.372Z,4.27
2019-06-20T13:15:16.044Z,2.02
2019-06-20T13:17:46.458Z,2.70
2019-06-20T13:20:16.339Z,2.47
2019-06-20T13:22:46.437Z,2.10
2019-06-20T13:25:18.538Z,3.58
2019-06-20T13:27:47.819Z,4.75
2019-06-20T13:30:16.951Z,2.90
2019-06-20T13:32:45.904Z,4.65
2019-06-20T13:35:16.192Z,3.02
2019-06-20T13:37:45.688Z,4.30
2019-06-20T13:40:16.117Z,2.63
2019-06-20T13:42:46.239Z,5.97
2019-06-20T13:45:23.869Z,2.43
2019-06-20T13:47:52.681Z,3.30
2019-06-20T13:50:23.195Z,1.97
2019-06-20T13:52:51.844Z,5.03
2019-06-20T13:55:20.324Z,2.98
2019-06-20T13:57:49.342Z,3.42
2019-06-20T14:00:21.059Z,2.30
2019-06-20T14:02:51.429Z,2.40
2019-06-20T14:05:20.824Z,6.87
2019-06-20T14:07:53.167Z,2.87
2019-06-20T14:10:19.654Z,1.92
2019-06-20T14:12:48.774Z,6.95
2019-06-20T14:15:18.673Z,4.60
2019-06-20T14:17:47.996Z,3.65
2019-06-20T14:20:18.378Z,3.83
2019-06-20T14:22:46.889Z,2.22
2019-06-20T14:25:15.716Z,6.22
2019-06-20T14:27:45.933Z,2.92
2019-06-20T14:30:14.505Z,1.30
2019-06-20T14:32:43.384Z,3.62
2019-06-20T14:35:12.373Z,4.90
2019-06-20T14:37:43.399Z,3.37
2019-06-20T14:40:11.903Z,2.77
2019-06-20T14:42:41.111Z,2.83
2019-06-20T14:45:10.201Z,2.67
2019-06-20T14:47:38.735Z,2.10
2019-06-20T14:50:11.198Z,3.42
2019-06-20T14:52:39.870Z,4.03
2019-06-20T14:55:09.152Z,3.15
2019-06-20T14:57:37.664Z,3.60
2019-06-20T15:00:11.294Z,5.15
2019-06-20T15:02:39.707Z,3.87
2019-06-20T15:05:16.233Z,3.62
2019-06-20T15:07:45.715Z,1.77
2019-06-20T15:10:16.039Z,4.40
2019-06-20T15:12:45.751Z,3.00
2019-06-20T15:15:14.799Z,3.67
2019-06-20T15:17:43.376Z,1.70
2019-06-20T15:20:15.443Z,6.10
2019-06-20T15:22:43.848Z,3.08
2019-06-20T15:25:12.801Z,3.20
2019-06-20T15:27:41.375Z,2.13
2019-06-20T15:30:11.475Z,1.80
2019-06-20T15:32:53.509Z,2.37
2019-06-20T15:35:10.503Z,4.58
2019-06-20T15:37:39.044Z,2.83
2019-06-20T15:40:08.304Z,3.57
2019-06-20T15:42:36.725Z,2.67
2019-06-20T15:45:09.137Z,7.22
2019-06-20T15:47:38.384Z,3.58
2019-06-20T15:50:11.389Z,3.52
2019-06-20T15:52:42.305Z,3.37
2019-06-20T15:55:12.852Z,3.75
2019-06-20T15:57:41.530Z,3.55
2019-06-20T16:00:14.685Z,3.22
2019-06-20T16:02:43.142Z,3.15
2019-06-20T16:05:12.217Z,4.50
2019-06-20T16:07:40.612Z,5.33
2019-06-20T16:10:10.064Z,2.60
2019-06-20T16:12:38.597Z,2.95
2019-06-20T16:15:08.194Z,2.62
2019-06-20T16:17:36.710Z,7.35
2019-06-20T16:20:06.645Z,34.65
2019-06-20T16:22:37.333Z,14.03
2019-06-20T16:25:06.597Z,3.02
2019-06-20T16:27:35.010Z,2.37
2019-06-20T16:30:07.093Z,5.17
2019-06-20T16:32:35.941Z,4.20
2019-06-20T16:35:07.020Z,4.90
2019-06-20T16:37:35.524Z,2.02
2019-06-20T16:40:07.300Z,2.02
2019-06-20T16:42:35.724Z,3.42
2019-06-20T16:45:09.527Z,2.37
2019-06-20T16:47:38.181Z,4.90
2019-06-20T16:50:07.855Z,2.50
2019-06-20T16:52:36.248Z,2.33
2019-06-20T16:55:06.528Z,2.55
2019-06-20T16:57:34.976Z,2.52
2019-06-20T17:00:07.476Z,4.20
2019-06-20T17:02:35.962Z,1.90
2019-06-20T17:05:08.905Z,2.37
2019-06-20T17:07:37.335Z,2.70
2019-06-20T17:10:06.871Z,5.20
2019-06-20T17:12:35.412Z,3.37
2019-06-20T17:15:05.720Z,3.08
2019-06-20T17:17:34.201Z,2.00
2019-06-20T17:20:02.629Z,3.65
2019-06-20T17:22:31.014Z,1.82
2019-06-20T17:24:59.619Z,5.23
2019-06-20T17:27:28.078Z,3.95
2019-06-20T17:29:56.524Z,6.53
2019-06-20T17:32:24.916Z,4.33
2019-06-20T17:34:53.568Z,3.53
2019-06-20T17:37:22.073Z,3.92
2019-06-20T17:39:50.486Z,2.83
2019-06-20T17:42:19.052Z,2.83
2019-06-20T17:44:47.463Z,19.30
2019-06-20T17:47:15.854Z,9.23
2019-06-20T17:49:44.275Z,10.95
2019-06-20T17:52:12.689Z,8.00
2019-06-20T17:54:42.647Z,7.45
2019-06-20T17:57:11.078Z,5.15
2019-06-20T17:59:39.597Z,19.40
2019-06-20T18:02:09.493Z,21.45
2019-06-20T18:04:37.907Z,8.53
2019-06-20T18:07:06.327Z,14.60
2019-06-20T18:09:34.728Z,3.47
2019-06-20T18:12:03.897Z,2.33
2019-06-20T18:14:34.205Z,1.17
2019-06-20T18:17:02.690Z,0.90
2019-06-20T18:19:32.620Z,1.20
2019-06-20T18:22:01.137Z,4.60
2019-06-20T18:24:29.867Z,1.45
2019-06-20T18:26:58.287Z,0.93
2019-06-20T18:29:26.772Z,2.40
2019-06-20T18:31:55.296Z,0.80
2019-06-20T18:34:29.877Z,2.20
2019-06-20T18:36:53.910Z,2.30
2019-06-20T18:39:22.289Z,1.00
2019-06-20T18:41:52.485Z,2.95
2019-06-20T18:44:20.987Z,5.65
2019-06-20T18:46:49.406Z,1.87
2019-06-20T18:49:17.858Z,0.93
2019-06-20T18:51:46.302Z,3.77
2019-06-20T18:54:14.754Z,2.45
2019-06-20T18:56:43.274Z,2.72
2019-06-20T18:59:13.450Z,1.00
2019-06-20T19:01:41.880Z,2.95
2019-06-20T19:04:10.431Z,3.57
2019-06-20T19:06:38.967Z,3.25
2019-06-20T19:09:10.401Z,7.13
2019-06-20T19:11:38.822Z,1.40
2019-06-20T19:14:07.437Z,3.17
2019-06-20T19:16:35.869Z,1.45
2019-06-20T19:19:04.454Z,2.67
2019-06-20T19:21:34.508Z,2.15
2019-06-20T19:24:04.632Z,4.17
2019-06-20T19:26:34.547Z,1.47
2019-06-20T19:29:04.519Z,0.80
2019-06-20T19:31:32.963Z,1.50
2019-06-20T19:34:02.994Z,5.07
2019-06-20T19:36:31.403Z,1.93
2019-06-20T19:38:59.814Z,3.12
2019-06-20T19:41:28.342Z,3.27
2019-06-20T19:43:56.728Z,2.25
2019-06-20T19:46:25.180Z,3.75
2019-06-20T19:48:53.602Z,2.22
2019-06-20T19:51:22.179Z,2.33
2019-06-20T19:53:50.581Z,0.62
2019-06-20T19:56:19.075Z,2.57
2019-06-20T19:58:47.489Z,2.20
2019-06-20T20:01:17.500Z,1.75
2019-06-20T20:03:46.068Z,2.98
2019-06-20T20:06:14.644Z,1.80
2019-06-20T20:08:43.126Z,3.72
2019-06-20T20:11:12.693Z,0.90
2019-06-20T20:13:41.281Z,1.15
2019-06-20T20:16:09.683Z,1.65
2019-06-20T20:18:38.126Z,5.20
2019-06-20T20:21:06.640Z,2.13
2019-06-20T20:23:35.068Z,1.42
2019-06-20T20:26:03.535Z,1.17
2019-06-20T20:28:31.955Z,3.12
2019-06-20T20:31:00.404Z,0.78
2019-06-20T20:33:28.816Z,3.62
2019-06-20T20:35:57.676Z,1.65
2019-06-20T20:38:26.257Z,1.50
2019-06-20T20:40:54.651Z,1.97
2019-06-20T20:43:23.079Z,1.10
2019-06-20T20:45:52.644Z,0.87
2019-06-20T20:48:21.062Z,2.50
2019-06-20T20:50:49.505Z,1.47
2019-06-20T20:53:18.069Z,4.87
2019-06-20T20:55:46.464Z,1.70
2019-06-20T20:58:15.015Z,3.83
2019-06-20T21:00:55.251Z,1.73
2019-06-20T21:03:25.221Z,0.90
2019-06-20T21:05:55.154Z,0.80
2019-06-20T21:08:23.659Z,1.85
2019-06-20T21:10:52.061Z,0.70
2019-06-20T21:13:20.726Z,1.13
2019-06-20T21:15:49.122Z,1.27
2019-06-20T21:18:17.569Z,1.20
2019-06-20T21:20:46.066Z,0.80
2019-06-20T21:23:14.518Z,2.27
2019-06-20T21:25:42.918Z,1.75
2019-06-20T21:28:13.006Z,1.33
2019-06-20T21:30:41.491Z,1.27
2019-06-20T21:33:11.516Z,1.35
2019-06-20T21:35:40.190Z,1.32
2019-06-20T21:38:08.810Z,2.82
2019-06-20T21:40:37.345Z,3.00
2019-06-20T21:43:05.907Z,1.40
2019-06-20T21:45:34.366Z,1.40
2019-06-20T21:48:02.841Z,1.47
2019-06-20T21:50:31.342Z,2.30
2019-06-20T21:53:01.315Z,3.55
2019-06-20T21:55:29.757Z,1.98
2019-06-20T21:57:58.292Z,1.20
2019-06-20T22:00:40.065Z,1.47
2019-06-20T22:03:09.606Z,2.45
2019-06-20T22:05:38.798Z,2.00
2019-06-20T22:08:07.834Z,1.07
2019-06-20T22:10:36.407Z,2.20
2019-06-20T22:13:05.051Z,2.02
2019-06-20T22:15:33.665Z,2.67
2019-06-20T22:18:02.116Z,3.08
2019-06-20T22:20:30.757Z,1.87
2019-06-20T22:22:59.162Z,1.82
2019-06-20T22:25:29.955Z,1.57
2019-06-20T22:28:00.070Z,1.55
2019-06-20T22:30:46.641Z,3.62
2019-06-20T22:33:15.133Z,2.22
2019-06-20T22:35:46.110Z,1.95
2019-06-20T22:38:15.119Z,2.08
2019-06-20T22:40:43.866Z,1.40
2019-06-20T22:43:12.338Z,2.73
2019-06-20T22:45:40.858Z,2.75
2019-06-20T22:48:09.321Z,2.77
2019-06-20T22:50:37.843Z,1.65
2019-06-20T22:53:06.313Z,1.90
2019-06-20T22:55:35.476Z,1.75
2019-06-20T22:58:05.897Z,1.52
2019-06-20T23:00:34.466Z,4.20
2019-06-20T23:03:03.072Z,2.02
2019-06-20T23:05:31.474Z,3.08
2019-06-20T23:07:59.972Z,2.17
2019-06-20T23:10:28.440Z,1.27
2019-06-20T23:12:58.382Z,2.58
2019-06-20T23:15:26.870Z,1.45
2019-06-20T23:17:55.414Z,1.57
2019-06-20T23:20:23.912Z,2.15
2019-06-20T23:22:53.838Z,2.08
2019-06-20T23:25:22.426Z,1.27
2019-06-20T23:27:50.846Z,0.95
2019-06-20T23:30:20.020Z,2.75
2019-06-20T23:32:48.480Z,2.58
2019-06-20T23:35:16.967Z,1.87
2019-06-20T23:37:45.371Z,2.67
2019-06-20T23:40:14.030Z,0.80
2019-06-20T23:42:42.590Z,2.33
2019-06-20T23:45:11.546Z,1.02
2019-06-20T23:47:41.489Z,1.17
2019-06-20T23:50:11.990Z,1.30
2019-06-20T23:52:42.047Z,2.30
2019-06-20T23:55:10.615Z,4.80
2019-06-20T23:57:39.053Z,2.15
